createdAt,value
2018-09-20T00:00:07.158Z,16.28
2018-09-20T00:02:36.204Z,16.18
2018-09-20T00:05:05.148Z,16.05
2018-09-20T00:07:34.214Z,15.97
2018-09-20T00:10:03.183Z,15.92
2018-09-20T00:12:32.068Z,15.87
2018-09-20T00:15:00.999Z,15.82
2018-09-20T00:17:29.991Z,15.76
2018-09-20T00:19:58.798Z,15.67
2018-09-20T00:22:27.878Z,15.59
2018-09-20T00:24:56.661Z,15.57
2018-09-20T00:27:25.739Z,15.52
2018-09-20T00:29:54.824Z,15.46
2018-09-20T00:32:23.840Z,15.40
2018-09-20T00:34:52.820Z,15.30
2018-09-20T00:37:21.766Z,15.19
2018-09-20T00:39:50.755Z,15.12
2018-09-20T00:42:19.752Z,15.06
2018-09-20T00:44:48.646Z,14.95
2018-09-20T00:47:17.680Z,14.83
2018-09-20T00:49:49.001Z,14.78
2018-09-20T00:52:17.869Z,14.78
2018-09-20T00:54:49.525Z,14.75
2018-09-20T00:57:18.554Z,14.68
2018-09-20T00:59:47.615Z,14.63
2018-09-20T01:02:16.453Z,14.59
2018-09-20T01:04:45.326Z,14.56
2018-09-20T01:07:14.337Z,14.55
2018-09-20T01:09:43.268Z,14.60
2018-09-20T01:12:12.098Z,14.67
2018-09-20T01:14:40.968Z,14.71
2018-09-20T01:17:09.868Z,14.79
2018-09-20T01:19:38.703Z,14.83
2018-09-20T01:22:07.598Z,14.86
2018-09-20T01:24:36.477Z,14.89
2018-09-20T01:27:05.442Z,14.92
2018-09-20T01:29:34.257Z,14.95
2018-09-20T01:32:03.196Z,15.01
2018-09-20T01:34:32.068Z,15.04
2018-09-20T01:37:00.985Z,15.02
2018-09-20T01:39:29.878Z,14.99
2018-09-20T01:41:58.797Z,14.99
2018-09-20T01:44:27.730Z,15.00
2018-09-20T01:46:56.493Z,15.05
2018-09-20T01:49:25.334Z,15.06
2018-09-20T01:51:54.137Z,15.08
2018-09-20T01:54:22.963Z,15.08
2018-09-20T01:56:51.878Z,15.10
2018-09-20T01:59:20.800Z,15.12
2018-09-20T02:01:49.736Z,15.18
2018-09-20T02:04:18.699Z,15.21
2018-09-20T02:06:47.618Z,15.18
2018-09-20T02:09:16.504Z,15.18
2018-09-20T02:11:45.396Z,15.19
2018-09-20T02:14:14.241Z,15.18
2018-09-20T02:16:43.216Z,15.17
2018-09-20T02:19:12.160Z,15.13
2018-09-20T02:21:40.964Z,15.11
2018-09-20T02:24:09.892Z,15.07
2018-09-20T02:26:38.891Z,15.10
2018-09-20T02:29:07.729Z,15.13
2018-09-20T02:31:36.621Z,15.18
2018-09-20T02:34:05.560Z,15.18
2018-09-20T02:36:34.398Z,15.20
2018-09-20T02:39:03.281Z,15.26
2018-09-20T02:41:32.136Z,15.28
2018-09-20T02:44:01.075Z,15.31
2018-09-20T02:46:30.055Z,15.33
2018-09-20T02:48:59.042Z,15.39
2018-09-20T02:51:27.885Z,15.36
2018-09-20T02:53:56.738Z,15.40
2018-09-20T02:56:25.692Z,15.37
2018-09-20T02:58:54.817Z,15.36
2018-09-20T03:01:23.698Z,15.30
2018-09-20T03:03:52.688Z,15.30
2018-09-20T03:06:21.578Z,15.29
2018-09-20T03:08:50.496Z,15.29
2018-09-20T03:11:19.374Z,15.26
2018-09-20T03:13:48.220Z,15.22
2018-09-20T03:16:17.031Z,15.10
2018-09-20T03:18:45.967Z,15.02
2018-09-20T03:21:14.929Z,15.00
2018-09-20T03:23:43.832Z,15.00
2018-09-20T03:26:12.729Z,14.96
2018-09-20T03:28:41.582Z,14.94
2018-09-20T03:31:10.500Z,14.98
2018-09-20T03:33:39.585Z,14.97
2018-09-20T03:36:08.569Z,14.97
2018-09-20T03:38:37.424Z,15.01
2018-09-20T03:41:06.362Z,14.99
2018-09-20T03:43:35.477Z,14.98
2018-09-20T03:46:04.315Z,14.94
2018-09-20T03:48:33.325Z,14.90
2018-09-20T03:51:02.178Z,14.89
2018-09-20T03:53:31.147Z,14.89
2018-09-20T03:55:59.971Z,14.86
2018-09-20T03:58:28.833Z,14.81
2018-09-20T04:00:57.697Z,14.79
2018-09-20T04:03:26.549Z,14.76
2018-09-20T04:05:55.620Z,14.71
2018-09-20T04:08:24.513Z,14.63
2018-09-20T04:10:53.538Z,14.57
2018-09-20T04:13:22.376Z,14.58
2018-09-20T04:15:51.337Z,14.58
2018-09-20T04:18:20.261Z,14.57
2018-09-20T04:20:49.200Z,14.54
2018-09-20T04:23:18.051Z,14.54
2018-09-20T04:25:47.081Z,14.49
2018-09-20T04:28:16.100Z,14.45
2018-09-20T04:30:45.075Z,14.40
2018-09-20T04:33:14.017Z,14.37
2018-09-20T04:35:42.981Z,14.36
2018-09-20T04:38:11.892Z,14.35
2018-09-20T04:40:40.913Z,14.34
2018-09-20T04:43:09.792Z,14.35
2018-09-20T04:45:38.789Z,14.38
2018-09-20T04:48:07.763Z,14.41
2018-09-20T04:50:36.814Z,14.45
2018-09-20T04:53:06.640Z,14.46
2018-09-20T04:55:36.629Z,14.43
2018-09-20T04:58:05.605Z,14.44
2018-09-20T05:00:34.486Z,14.45
2018-09-20T05:03:03.421Z,14.42
2018-09-20T05:05:32.365Z,14.39
2018-09-20T05:08:01.393Z,14.33
2018-09-20T05:10:30.316Z,14.29
2018-09-20T05:12:59.229Z,14.28
2018-09-20T05:15:28.152Z,14.27
2018-09-20T05:17:57.109Z,14.24
2018-09-20T05:20:25.983Z,14.19
2018-09-20T05:22:54.872Z,14.20
2018-09-20T05:25:23.795Z,14.25
2018-09-20T05:27:52.745Z,14.29
2018-09-20T05:30:21.805Z,14.37
2018-09-20T05:32:50.679Z,14.47
2018-09-20T05:35:19.616Z,14.55
2018-09-20T05:37:48.549Z,14.62
2018-09-20T05:40:17.585Z,14.70
2018-09-20T05:42:46.540Z,14.80
2018-09-20T05:45:15.537Z,14.83
2018-09-20T05:47:44.424Z,14.89
2018-09-20T05:50:13.448Z,15.00
2018-09-20T05:52:42.388Z,15.09
2018-09-20T05:55:11.567Z,15.20
2018-09-20T05:57:40.577Z,15.26
2018-09-20T06:00:09.909Z,15.33
2018-09-20T06:02:38.888Z,15.41
2018-09-20T06:05:07.930Z,15.48
2018-09-20T06:07:36.821Z,15.57
2018-09-20T06:10:08.389Z,15.65
2018-09-20T06:12:37.363Z,15.74
2018-09-20T06:15:17.765Z,15.86
2018-09-20T06:17:55.102Z,16.08
2018-09-20T06:26:41.074Z,16.85
2018-09-20T06:29:15.555Z,17.05
2018-09-20T06:31:54.685Z,17.22
2018-09-20T06:34:43.737Z,17.34
2018-09-20T06:37:13.305Z,17.51
2018-09-20T06:39:42.689Z,17.70
2018-09-20T06:42:11.590Z,17.90
2018-09-20T06:44:40.653Z,18.00
2018-09-20T06:47:09.541Z,18.07
2018-09-20T06:49:38.396Z,18.15
2018-09-20T06:52:07.316Z,18.30
2018-09-20T06:54:36.277Z,18.43
2018-09-20T06:57:05.246Z,18.55
2018-09-20T06:59:34.119Z,18.73
2018-09-20T07:02:03.127Z,18.90
2018-09-20T07:04:32.075Z,19.05
2018-09-20T07:07:01.072Z,19.22
2018-09-20T07:09:30.115Z,19.38
2018-09-20T07:11:59.027Z,19.51
2018-09-20T07:14:27.929Z,19.75
2018-09-20T07:17:00.157Z,19.86
2018-09-20T07:19:29.114Z,19.93
2018-09-20T07:21:57.970Z,20.03
2018-09-20T07:24:26.812Z,20.09
2018-09-20T07:27:04.380Z,20.18
2018-09-20T07:29:33.269Z,20.34
2018-09-20T07:32:02.319Z,20.55
2018-09-20T07:34:31.290Z,20.81
2018-09-20T07:37:00.164Z,21.19
2018-09-20T07:39:29.126Z,21.60
2018-09-20T07:41:58.080Z,22.05
2018-09-20T07:44:26.920Z,22.37
2018-09-20T07:46:55.899Z,22.47
2018-09-20T07:49:24.774Z,22.56
2018-09-20T07:51:53.691Z,22.58
2018-09-20T07:54:22.682Z,22.60
2018-09-20T07:56:53.837Z,22.52
2018-09-20T07:59:22.673Z,22.47
2018-09-20T08:01:51.847Z,22.44
2018-09-20T08:04:20.688Z,22.54
2018-09-20T08:06:49.514Z,22.57
2018-09-20T08:09:18.377Z,22.42
2018-09-20T08:11:47.277Z,22.22
2018-09-20T08:14:16.123Z,21.89
2018-09-20T08:16:47.033Z,21.94
2018-09-20T08:19:15.987Z,22.24
2018-09-20T08:21:44.804Z,22.30
2018-09-20T08:24:13.681Z,22.30
2018-09-20T08:26:42.602Z,22.11
2018-09-20T08:29:11.532Z,21.99
2018-09-20T08:31:40.412Z,21.94
2018-09-20T08:34:09.237Z,22.00
2018-09-20T08:36:38.235Z,22.05
2018-09-20T08:39:10.069Z,21.98
2018-09-20T08:41:39.177Z,21.71
2018-09-20T08:44:08.492Z,21.59
2018-09-20T08:46:37.656Z,21.46
2018-09-20T08:49:06.568Z,21.39
2018-09-20T08:51:35.429Z,21.46
2018-09-20T08:54:04.308Z,21.65
2018-09-20T08:56:33.338Z,21.79
2018-09-20T08:59:02.206Z,21.84
2018-09-20T09:01:31.134Z,21.90
2018-09-20T09:04:00.053Z,22.01
2018-09-20T09:06:29.001Z,22.12
2018-09-20T09:08:58.221Z,22.29
2018-09-20T09:11:27.115Z,22.40
2018-09-20T09:13:56.088Z,22.50
2018-09-20T09:16:26.192Z,22.62
2018-09-20T09:18:55.140Z,22.74
2018-09-20T09:21:24.147Z,23.05
2018-09-20T09:23:53.071Z,23.34
2018-09-20T09:26:21.909Z,23.45
2018-09-20T09:28:50.773Z,23.50
2018-09-20T09:31:19.750Z,23.62
2018-09-20T09:33:48.647Z,23.65
2018-09-20T09:36:17.726Z,23.65
2018-09-20T09:38:46.669Z,23.72
2018-09-20T09:41:15.664Z,23.83
2018-09-20T09:43:44.633Z,23.91
2018-09-20T09:46:13.585Z,23.74
2018-09-20T09:48:45.777Z,23.96
2018-09-20T09:51:14.670Z,24.10
2018-09-20T09:53:43.605Z,24.16
2018-09-20T09:56:13.303Z,24.32
2018-09-20T09:58:55.528Z,24.34
2018-09-20T10:01:24.508Z,24.38
2018-09-20T10:03:53.381Z,24.35
2018-09-20T10:06:22.356Z,24.23
2018-09-20T10:08:51.342Z,24.25
2018-09-20T10:11:20.220Z,24.06
2018-09-20T10:13:49.281Z,24.33
2018-09-20T10:16:18.160Z,24.49
2018-09-20T10:19:04.419Z,24.81
2018-09-20T10:21:34.915Z,25.16
2018-09-20T10:24:03.870Z,25.28
2018-09-20T10:26:32.876Z,25.18
2018-09-20T10:29:01.904Z,25.25
2018-09-20T10:31:30.884Z,25.37
2018-09-20T10:33:59.907Z,25.31
2018-09-20T10:36:28.854Z,25.12
2018-09-20T10:39:08.808Z,25.16
2018-09-20T10:41:37.809Z,25.15
2018-09-20T10:44:06.834Z,25.54
2018-09-20T10:46:35.790Z,25.99
2018-09-20T10:49:04.866Z,25.85
2018-09-20T10:51:33.965Z,25.81
2018-09-20T10:54:02.825Z,25.83
2018-09-20T10:56:31.814Z,25.77
2018-09-20T10:59:00.805Z,25.67
2018-09-20T11:01:29.686Z,25.73
2018-09-20T11:03:58.646Z,25.81
2018-09-20T11:06:27.496Z,25.77
2018-09-20T11:09:13.282Z,25.88
2018-09-20T11:11:43.616Z,25.75
2018-09-20T11:14:12.537Z,25.95
2018-09-20T11:16:41.456Z,26.08
2018-09-20T11:19:11.500Z,25.95
2018-09-20T11:21:40.469Z,25.81
2018-09-20T11:24:09.339Z,26.04
2018-09-20T11:26:38.264Z,26.35
2018-09-20T11:29:07.293Z,26.57
2018-09-20T11:31:36.195Z,26.65
2018-09-20T11:34:05.139Z,26.68
2018-09-20T11:36:34.123Z,26.57
2018-09-20T11:39:03.155Z,26.56
2018-09-20T11:41:32.143Z,26.55
2018-09-20T11:44:01.065Z,26.24
2018-09-20T11:46:30.089Z,25.96
2018-09-20T11:49:01.122Z,25.83
2018-09-20T11:51:30.092Z,25.61
2018-09-20T11:53:59.096Z,25.57
2018-09-20T11:56:28.117Z,25.51
2018-09-20T11:58:59.221Z,25.25
2018-09-20T12:01:28.208Z,25.21
2018-09-20T12:03:57.119Z,25.39
2018-09-20T12:06:26.098Z,25.38
2018-09-20T12:08:57.272Z,25.51
2018-09-20T12:11:26.704Z,25.50
2018-09-20T12:13:55.676Z,25.69
2018-09-20T12:16:24.580Z,25.84
2018-09-20T12:18:54.551Z,26.13
2018-09-20T12:21:23.454Z,26.48
2018-09-20T12:23:52.522Z,26.72
2018-09-20T12:26:21.462Z,26.96
2018-09-20T12:28:50.513Z,27.12
2018-09-20T12:31:19.602Z,27.50
2018-09-20T12:33:48.625Z,27.69
2018-09-20T12:36:17.491Z,27.62
2018-09-20T12:38:46.404Z,27.51
2018-09-20T12:41:15.299Z,27.37
2018-09-20T12:43:44.185Z,27.33
2018-09-20T12:46:13.082Z,27.53
2018-09-20T12:48:41.963Z,27.33
2018-09-20T12:51:12.964Z,27.03
2018-09-20T12:53:41.879Z,27.00
2018-09-20T12:56:10.872Z,26.92
2018-09-20T12:58:46.689Z,27.59
2018-09-20T13:01:21.393Z,28.18
2018-09-20T13:03:52.597Z,28.55
2018-09-20T13:06:21.753Z,28.61
2018-09-20T13:08:50.819Z,27.91
2018-09-20T13:11:21.793Z,27.54
2018-09-20T13:13:50.869Z,27.43
2018-09-20T13:16:19.879Z,27.70
2018-09-20T13:18:48.854Z,29.47
2018-09-20T13:21:18.916Z,30.23
2018-09-20T13:23:49.509Z,30.60
2018-09-20T13:26:18.428Z,30.44
2018-09-20T13:28:47.433Z,30.53
2018-09-20T13:31:20.279Z,30.57
2018-09-20T13:33:49.221Z,30.40
2018-09-20T13:36:18.181Z,31.65
2018-09-20T13:38:47.218Z,33.02
2018-09-20T13:42:03.405Z,33.87
2018-09-20T13:44:32.536Z,33.25
2018-09-20T13:47:01.516Z,34.03
2018-09-20T13:49:30.424Z,34.33
2018-09-20T13:52:22.512Z,35.69
2018-09-20T13:54:51.529Z,37.09
2018-09-20T13:57:20.491Z,37.59
2018-09-20T13:59:49.527Z,36.78
2018-09-20T14:02:18.410Z,36.09
2018-09-20T14:04:47.402Z,35.97
2018-09-20T14:07:16.319Z,36.96
2018-09-20T14:09:45.253Z,36.59
2018-09-20T14:12:24.815Z,36.49
2018-09-20T14:14:53.756Z,34.90
2018-09-20T14:17:22.679Z,35.49
2018-09-20T14:19:51.613Z,35.46
2018-09-20T14:22:22.611Z,35.92
2018-09-20T14:24:51.505Z,37.28
2018-09-20T14:27:20.509Z,37.88
2018-09-20T14:29:49.613Z,37.82
2018-09-20T14:32:18.641Z,37.07
2018-09-20T14:34:47.669Z,36.29
2018-09-20T14:37:16.570Z,35.14
2018-09-20T14:39:45.482Z,33.62
2018-09-20T14:42:27.976Z,34.71
2018-09-20T14:44:56.835Z,35.25
2018-09-20T14:47:26.189Z,35.51
2018-09-20T14:49:55.081Z,35.94
2018-09-20T14:52:41.411Z,35.73
2018-09-20T14:55:10.381Z,36.41
2018-09-20T14:57:39.281Z,36.37
2018-09-20T15:00:08.285Z,37.02
2018-09-20T15:02:37.173Z,37.26
2018-09-20T15:05:06.161Z,36.96
2018-09-20T15:07:35.133Z,36.79
2018-09-20T15:10:04.125Z,36.89
2018-09-20T15:12:33.100Z,36.17
2018-09-20T15:15:02.085Z,36.44
2018-09-20T15:17:30.922Z,36.95
2018-09-20T15:19:59.902Z,36.70
2018-09-20T15:22:32.161Z,36.87
2018-09-20T15:25:01.148Z,36.82
2018-09-20T15:27:30.160Z,36.85
2018-09-20T15:29:59.195Z,36.10
2018-09-20T15:32:32.153Z,35.21
2018-09-20T15:35:01.041Z,34.51
2018-09-20T15:37:30.011Z,34.69
2018-09-20T15:39:58.977Z,35.30
2018-09-20T15:42:31.033Z,35.28
2018-09-20T15:44:59.967Z,34.83
2018-09-20T15:47:29.009Z,34.19
2018-09-20T15:49:58.308Z,33.63
2018-09-20T15:52:27.260Z,33.11
2018-09-20T15:54:56.344Z,33.04
2018-09-20T15:57:25.224Z,32.57
2018-09-20T15:59:54.275Z,31.90
2018-09-20T16:02:23.181Z,31.42
2018-09-20T16:04:52.246Z,31.20
2018-09-20T16:08:50.829Z,31.53
2018-09-20T16:11:19.832Z,31.59
2018-09-20T16:13:48.773Z,31.22
2018-09-20T16:16:17.651Z,31.10
2018-09-20T16:18:46.762Z,31.26
2018-09-20T16:21:15.759Z,31.12
2018-09-20T16:23:44.716Z,30.86
2018-09-20T16:26:13.746Z,30.39
2018-09-20T16:28:50.110Z,30.02
2018-09-20T16:31:49.801Z,29.32
2018-09-20T16:34:28.584Z,28.51
2018-09-20T16:37:11.130Z,27.73
2018-09-20T16:39:40.946Z,27.02
2018-09-20T16:42:11.654Z,26.53
2018-09-20T16:44:40.645Z,26.03
2018-09-20T16:47:10.124Z,25.62
2018-09-20T16:49:39.087Z,25.42
2018-09-20T16:52:08.023Z,25.22
2018-09-20T16:54:36.920Z,25.07
2018-09-20T16:57:05.934Z,24.86
2018-09-20T16:59:34.827Z,24.59
2018-09-20T17:02:03.922Z,24.29
2018-09-20T17:04:32.932Z,23.98
2018-09-20T17:07:01.989Z,23.63
2018-09-20T17:09:30.883Z,23.35
2018-09-20T17:11:59.982Z,23.14
2018-09-20T17:14:28.931Z,22.83
2018-09-20T17:16:57.944Z,22.52
2018-09-20T17:19:26.821Z,22.24
2018-09-20T17:21:55.820Z,21.95
2018-09-20T17:24:24.779Z,21.67
2018-09-20T17:26:53.799Z,21.44
2018-09-20T17:29:22.869Z,21.21
2018-09-20T17:31:51.888Z,20.97
2018-09-20T17:34:21.006Z,20.74
2018-09-20T17:36:50.772Z,20.50
2018-09-20T17:39:20.366Z,20.23
2018-09-20T17:41:50.114Z,19.95
2018-09-20T17:44:19.189Z,19.69
2018-09-20T17:46:48.049Z,19.44
2018-09-20T17:49:16.999Z,19.22
2018-09-20T17:51:46.313Z,19.01
2018-09-20T17:54:15.697Z,18.82
2018-09-20T17:56:45.073Z,18.66
2018-09-20T17:59:14.024Z,18.53
2018-09-20T18:01:42.983Z,18.42
2018-09-20T18:04:11.870Z,18.32
2018-09-20T18:06:40.869Z,18.22
2018-09-20T18:09:10.490Z,18.15
2018-09-20T18:11:39.502Z,18.07
2018-09-20T18:14:08.427Z,17.99
2018-09-20T18:16:37.330Z,17.90
2018-09-20T18:19:06.235Z,17.81
2018-09-20T18:21:35.108Z,17.70
2018-09-20T18:24:04.207Z,17.58
2018-09-20T18:26:33.157Z,17.50
2018-09-20T18:29:02.121Z,17.41
2018-09-20T18:31:30.996Z,17.35
2018-09-20T18:34:00.313Z,17.29
2018-09-20T18:36:29.180Z,17.22
2018-09-20T18:38:58.230Z,17.15
2018-09-20T18:41:27.040Z,17.05
2018-09-20T18:43:56.077Z,16.96
2018-09-20T18:46:24.941Z,16.86
2018-09-20T18:48:53.835Z,16.77
2018-09-20T18:51:22.760Z,16.70
2018-09-20T18:53:53.702Z,16.61
2018-09-20T18:56:22.600Z,16.54
2018-09-20T18:58:51.629Z,16.49
2018-09-20T19:01:20.652Z,16.44
2018-09-20T19:03:49.780Z,16.45
2018-09-20T19:06:18.819Z,16.46
2018-09-20T19:08:47.860Z,16.43
2018-09-20T19:11:16.736Z,16.42
2018-09-20T19:13:45.920Z,16.40
2018-09-20T19:16:14.821Z,16.37
2018-09-20T19:18:43.691Z,16.32
2018-09-20T19:21:12.581Z,16.29
2018-09-20T19:23:41.530Z,16.24
2018-09-20T19:26:10.508Z,16.21
2018-09-20T19:28:39.471Z,16.20
2018-09-20T19:31:08.360Z,16.17
2018-09-20T19:33:37.445Z,16.17
2018-09-20T19:36:06.350Z,16.15
2018-09-20T19:38:35.187Z,16.11
2018-09-20T19:41:04.103Z,16.12
2018-09-20T19:43:33.035Z,16.12
2018-09-20T19:46:01.861Z,16.11
2018-09-20T19:48:30.782Z,16.18
2018-09-20T19:50:59.829Z,16.25
2018-09-20T19:53:28.719Z,16.29
2018-09-20T19:55:57.723Z,16.27
2018-09-20T19:58:26.589Z,16.24
2018-09-20T20:00:56.681Z,16.25
2018-09-20T20:03:26.480Z,16.25
2018-09-20T20:05:55.446Z,16.23
2018-09-20T20:08:24.524Z,16.21
2018-09-20T20:10:53.570Z,16.19
2018-09-20T20:13:22.511Z,16.16
2018-09-20T20:15:51.528Z,16.13
2018-09-20T20:18:20.492Z,16.07
2018-09-20T20:20:49.500Z,16.01
2018-09-20T20:23:19.561Z,15.97
2018-09-20T20:25:48.506Z,15.92
2018-09-20T20:28:17.466Z,15.92
2018-09-20T20:30:46.482Z,16.00
2018-09-20T20:33:15.501Z,16.06
2018-09-20T20:35:44.509Z,16.05
2018-09-20T20:38:13.434Z,16.03
2018-09-20T20:40:42.373Z,15.97
2018-09-20T20:43:11.304Z,15.88
2018-09-20T20:45:40.204Z,15.80
2018-09-20T20:48:09.094Z,15.74
2018-09-20T20:50:38.104Z,15.66
2018-09-20T20:53:07.020Z,15.62
2018-09-20T20:55:35.962Z,15.60
2018-09-20T20:58:04.868Z,15.60
2018-09-20T21:00:33.912Z,15.66
2018-09-20T21:03:02.888Z,15.76
2018-09-20T21:05:31.709Z,15.86
2018-09-20T21:08:00.624Z,16.08
2018-09-20T21:10:29.659Z,16.29
2018-09-20T21:12:58.621Z,16.52
2018-09-20T21:15:27.593Z,16.66
2018-09-20T21:17:56.542Z,16.79
2018-09-20T21:20:25.502Z,16.85
2018-09-20T21:22:54.521Z,16.85
2018-09-20T21:25:23.579Z,16.89
2018-09-20T21:27:52.614Z,16.95
2018-09-20T21:30:21.496Z,17.01
2018-09-20T21:32:50.325Z,17.02
2018-09-20T21:35:19.398Z,17.02
2018-09-20T21:37:48.437Z,17.01
2018-09-20T21:40:17.337Z,17.02
2018-09-20T21:42:46.375Z,16.97
2018-09-20T21:45:15.473Z,16.91
2018-09-20T21:47:44.481Z,16.86
2018-09-20T21:50:13.400Z,16.80
2018-09-20T21:52:42.365Z,16.71
2018-09-20T21:55:11.273Z,16.66
2018-09-20T21:57:40.324Z,16.64
2018-09-20T22:00:09.379Z,16.60
2018-09-20T22:02:43.442Z,16.53
2018-09-20T22:05:12.518Z,16.46
2018-09-20T22:07:41.516Z,16.36
2018-09-20T22:10:10.395Z,16.28
2018-09-20T22:12:39.357Z,16.24
2018-09-20T22:15:14.589Z,16.19
2018-09-20T22:17:43.623Z,16.13
2018-09-20T22:20:12.666Z,16.07
2018-09-20T22:22:41.545Z,15.99
2018-09-20T22:25:10.457Z,15.95
2018-09-20T22:27:39.428Z,15.93
2018-09-20T22:30:08.327Z,15.87
2018-09-20T22:32:37.479Z,15.80
2018-09-20T22:35:06.825Z,15.78
2018-09-20T22:37:35.861Z,15.71
2018-09-20T22:40:05.044Z,15.67
2018-09-20T22:42:33.965Z,15.62
2018-09-20T22:45:03.579Z,15.58
2018-09-20T22:47:32.841Z,15.58
2018-09-20T22:50:01.853Z,15.57
2018-09-20T22:52:30.837Z,15.54
2018-09-20T22:54:59.762Z,15.56
2018-09-20T22:57:28.627Z,15.56
2018-09-20T22:59:57.621Z,15.61
2018-09-20T23:02:26.545Z,15.74
2018-09-20T23:04:55.486Z,15.87
2018-09-20T23:07:24.530Z,15.98
2018-09-20T23:09:53.576Z,16.07
2018-09-20T23:12:22.501Z,16.18
2018-09-20T23:14:51.365Z,16.26
2018-09-20T23:17:20.408Z,16.30
2018-09-20T23:19:49.282Z,16.29
2018-09-20T23:22:18.233Z,16.28
2018-09-20T23:24:47.137Z,16.35
2018-09-20T23:27:16.319Z,16.38
2018-09-20T23:29:45.232Z,16.41
2018-09-20T23:32:14.161Z,16.53
2018-09-20T23:34:42.949Z,16.66
2018-09-20T23:37:11.852Z,16.79
2018-09-20T23:39:40.822Z,16.86
2018-09-20T23:42:09.729Z,16.85
2018-09-20T23:44:38.639Z,16.83
2018-09-20T23:47:07.558Z,16.87
2018-09-20T23:49:36.409Z,16.93
2018-09-20T23:52:05.459Z,16.96
2018-09-20T23:54:34.359Z,17.06
2018-09-20T23:57:03.413Z,17.18
2018-09-20T23:59:32.348Z,17.19
